Time;durP1;ratioP1;P1;durP2;ratioP2;P2;SDS_P1;SDS_P2;PMS_P1;PMS_P2;Temp;Humidity;BMP_temperature;BMP_pressure;BME280_temperature;BME280_humidity;BME280_pressure;Samples;Min_cycle;Max_cycle;Signal;HPM_P1;HPM_P2
2021/07/20 00:02:31;;;;;;;11.73;5.77;;;;;;;;;;10242288;28;20219;-71
2021/07/20 00:07:35;;;;;;;10.90;5.57;;;;;;;;;;10239938;28;20759;-72
2021/07/20 00:12:37;;;;;;;10.93;5.83;;;;;;;;;;10256143;28;20273;-72
2021/07/20 00:17:44;;;;;;;10.13;5.70;;;;;;;;;;10250463;28;20291;-74
2021/07/20 00:22:48;;;;;;;11.60;6.13;;;;;;;;;;10234230;28;20680;-71
2021/07/20 00:27:51;;;;;;;12.43;6.57;;;;;;;;;;10252121;28;20588;-73
2021/07/20 00:32:54;;;;;;;10.63;6.07;;;;;;;;;;10247058;28;20212;-72
2021/07/20 00:37:58;;;;;;;11.43;6.87;;;;;;;;;;10244570;28;20193;-73
2021/07/20 00:43:01;;;;;;;12.23;6.77;;;;;;;;;;10239885;28;20224;-72
2021/07/20 00:48:04;;;;;;;14.00;7.23;;;;;;;;;;10249076;28;20231;-72
2021/07/20 00:53:08;;;;;;;12.77;7.67;;;;;;;;;;10247263;28;20287;-71
2021/07/20 00:58:12;;;;;;;13.43;8.07;;;;;;;;;;10248933;28;20296;-72
2021/07/20 01:03:14;;;;;;;14.87;7.97;;;;;;;;;;10245293;28;20216;-73
2021/07/20 01:08:19;;;;;;;14.53;7.97;;;;;;;;;;10234318;28;20355;-71
2021/07/20 01:13:21;;;;;;;13.50;6.67;;;;;;;;;;10243248;28;20229;-71
2021/07/20 01:18:25;;;;;;;12.37;7.20;;;;;;;;;;10249173;28;20219;-74
2021/07/20 01:23:32;;;;;;;13.03;6.93;;;;;;;;;;10245073;28;20299;-71
2021/07/20 01:28:36;;;;;;;12.13;7.00;;;;;;;;;;10249425;28;20263;-72
2021/07/20 01:33:41;;;;;;;12.77;6.47;;;;;;;;;;10249143;28;20762;-73
2021/07/20 01:38:46;;;;;;;12.57;7.20;;;;;;;;;;10269311;28;20191;-72
2021/07/20 01:43:50;;;;;;;13.63;7.90;;;;;;;;;;10250034;28;20764;-73
2021/07/20 01:48:54;;;;;;;11.93;7.03;;;;;;;;;;10246665;28;20231;-72
2021/07/20 01:53:59;;;;;;;12.50;6.50;;;;;;;;;;10242992;28;20659;-71
2021/07/20 01:59:02;;;;;;;14.57;7.20;;;;;;;;;;10246728;28;20200;-71
2021/07/20 02:09:31;;;;;;;12.13;6.90;;;;;;;;;;10242591;28;20264;-71
2021/07/20 02:14:41;;;;;;;13.97;7.53;;;;;;;;;;10250542;28;20585;-71
2021/07/20 02:19:46;;;;;;;13.93;7.20;;;;;;;;;;10244661;28;20674;-72
2021/07/20 02:24:51;;;;;;;13.03;7.50;;;;;;;;;;10250602;28;20582;-71
2021/07/20 02:29:55;;;;;;;12.97;7.50;;;;;;;;;;10247959;28;20226;-71
2021/07/20 02:34:58;;;;;;;14.53;7.67;;;;;;;;;;10247862;28;20566;-72
2021/07/20 02:40:04;;;;;;;13.87;8.10;;;;;;;;;;10244246;28;20271;-72
2021/07/20 02:45:08;;;;;;;13.60;8.00;;;;;;;;;;10242518;28;20327;-73
2021/07/20 02:50:12;;;;;;;14.53;7.87;;;;;;;;;;10245375;28;20208;-73
2021/07/20 02:55:18;;;;;;;15.77;8.37;;;;;;;;;;10248891;28;20303;-72
2021/07/20 03:00:21;;;;;;;14.40;8.20;;;;;;;;;;10248512;28;20675;-72
2021/07/20 03:05:23;;;;;;;14.63;8.30;;;;;;;;;;10252740;28;20248;-71
2021/07/20 03:10:29;;;;;;;14.80;8.67;;;;;;;;;;10245139;28;20319;-71
2021/07/20 03:15:32;;;;;;;15.43;8.57;;;;;;;;;;10243546;28;20227;-72
2021/07/20 03:20:37;;;;;;;16.10;8.83;;;;;;;;;;10245449;28;20180;-72
2021/07/20 03:25:42;;;;;;;12.57;7.77;;;;;;;;;;10253634;28;20231;-71
2021/07/20 03:30:45;;;;;;;13.73;7.80;;;;;;;;;;10251433;28;20216;-70
2021/07/20 03:35:48;;;;;;;13.60;8.07;;;;;;;;;;10244899;28;20291;-73
2021/07/20 03:40:55;;;;;;;14.80;7.80;;;;;;;;;;10243879;28;20688;-71
2021/07/20 03:46:00;;;;;;;16.30;8.47;;;;;;;;;;10242903;28;20227;-71
2021/07/20 03:51:03;;;;;;;15.37;8.63;;;;;;;;;;10240842;28;20671;-71
2021/07/20 03:56:08;;;;;;;17.43;8.70;;;;;;;;;;10249219;28;20224;-71
2021/07/20 04:01:12;;;;;;;15.13;8.67;;;;;;;;;;10253079;28;20328;-71
2021/07/20 04:06:15;;;;;;;14.47;8.40;;;;;;;;;;10221844;28;20684;-71
2021/07/20 04:11:19;;;;;;;17.30;9.40;;;;;;;;;;10242722;28;20395;-71
2021/07/20 04:16:33;;;;;;;15.80;9.07;;;;;;;;;;10258697;28;20633;-73
2021/07/20 04:21:37;;;;;;;15.40;8.17;;;;;;;;;;10247084;28;20204;-72
2021/07/20 04:26:42;;;;;;;15.27;8.47;;;;;;;;;;10226981;28;20240;-71
2021/07/20 04:31:45;;;;;;;13.23;8.43;;;;;;;;;;10240693;28;20215;-70
2021/07/20 04:36:48;;;;;;;14.33;8.30;;;;;;;;;;10248619;28;20227;-70
2021/07/20 04:41:53;;;;;;;16.23;8.43;;;;;;;;;;10254484;28;20231;-71
2021/07/20 04:46:56;;;;;;;14.93;8.40;;;;;;;;;;10242480;28;20311;-72
2021/07/20 04:51:59;;;;;;;12.77;7.67;;;;;;;;;;10240592;28;20216;-72
2021/07/20 04:57:03;;;;;;;14.90;8.30;;;;;;;;;;10247604;28;20200;-73
2021/07/20 05:02:06;;;;;;;13.50;7.97;;;;;;;;;;10250136;28;20251;-72
2021/07/20 05:07:12;;;;;;;14.87;7.93;;;;;;;;;;10257730;28;20565;-72
2021/07/20 05:12:17;;;;;;;14.37;7.40;;;;;;;;;;10269030;28;20211;-71
2021/07/20 05:17:20;;;;;;;14.73;7.37;;;;;;;;;;10260762;28;20582;-72
2021/07/20 05:22:23;;;;;;;13.73;7.20;;;;;;;;;;10260013;28;20315;-71
2021/07/20 05:27:27;;;;;;;11.93;6.87;;;;;;;;;;10248822;28;20226;-71
2021/07/20 05:32:31;;;;;;;13.40;7.53;;;;;;;;;;10245464;28;20212;-72
2021/07/20 05:37:35;;;;;;;12.47;7.20;;;;;;;;;;10264630;28;20196;-77
2021/07/20 05:42:40;;;;;;;13.07;7.60;;;;;;;;;;10256193;28;20216;-79
2021/07/20 05:47:46;;;;;;;13.73;7.93;;;;;;;;;;10266708;28;20222;-74
2021/07/20 05:52:50;;;;;;;13.93;7.57;;;;;;;;;;10243851;28;20225;-75
2021/07/20 05:57:54;;;;;;;13.23;7.47;;;;;;;;;;10238873;28;20331;-73
2021/07/20 06:02:58;;;;;;;12.60;7.47;;;;;;;;;;10248990;28;20288;-75
2021/07/20 06:08:01;;;;;;;13.30;7.20;;;;;;;;;;10240627;28;20215;-75
2021/07/20 06:13:05;;;;;;;13.33;7.03;;;;;;;;;;10249119;28;20310;-76
2021/07/20 06:18:08;;;;;;;11.77;7.30;;;;;;;;;;10250387;28;20288;-75
2021/07/20 06:23:12;;;;;;;12.70;7.00;;;;;;;;;;10243003;28;20652;-74
2021/07/20 06:28:16;;;;;;;11.67;6.87;;;;;;;;;;10247462;28;20208;-74
2021/07/20 06:33:19;;;;;;;12.60;7.37;;;;;;;;;;10256895;28;20543;-75
2021/07/20 06:38:23;;;;;;;12.47;7.20;;;;;;;;;;10264977;28;20251;-74
2021/07/20 06:43:27;;;;;;;13.03;7.43;;;;;;;;;;10233170;28;20306;-74
2021/07/20 06:48:30;;;;;;;15.40;7.90;;;;;;;;;;10244478;28;20251;-74
2021/07/20 06:53:34;;;;;;;12.73;8.27;;;;;;;;;;10240452;28;20223;-73
2021/07/20 06:58:40;;;;;;;14.00;7.77;;;;;;;;;;10253218;28;20252;-72
2021/07/20 07:03:45;;;;;;;11.77;7.30;;;;;;;;;;10250027;28;20234;-74
2021/07/20 07:08:48;;;;;;;10.93;6.77;;;;;;;;;;10253595;28;20216;-73
2021/07/20 07:13:52;;;;;;;14.05;7.65;;;;;;;;;;10262425;28;20278;-74
2021/07/20 07:18:55;;;;;;;12.77;7.57;;;;;;;;;;10248339;28;20201;-74
2021/07/20 07:23:59;;;;;;;13.27;7.38;;;;;;;;;;10238242;28;20239;-74
2021/07/20 07:29:03;;;;;;;12.75;7.72;;;;;;;;;;10245668;28;20223;-75
2021/07/20 07:34:05;;;;;;;13.65;8.50;;;;;;;;;;10239854;28;20306;-74
2021/07/20 07:39:08;;;;;;;12.95;8.10;;;;;;;;;;10256966;28;20191;-74
2021/07/20 07:44:13;;;;;;;14.18;8.70;;;;;;;;;;10239236;28;20300;-72
2021/07/20 07:49:16;;;;;;;11.80;7.07;;;;;;;;;;10245657;28;20291;-73
2021/07/20 07:54:19;;;;;;;13.13;6.32;;;;;;;;;;10232505;28;20239;-74
2021/07/20 07:59:26;;;;;;;12.48;6.88;;;;;;;;;;10238384;28;20212;-75
2021/07/20 08:04:30;;;;;;;12.32;6.80;;;;;;;;;;10241437;28;20297;-74
2021/07/20 08:09:33;;;;;;;11.77;6.03;;;;;;;;;;10246815;28;20270;-73
2021/07/20 08:14:38;;;;;;;10.90;7.07;;;;;;;;;;10246352;28;20219;-76
2021/07/20 08:19:42;;;;;;;11.77;7.18;;;;;;;;;;10250411;28;20199;-75
2021/07/20 08:24:54;;;;;;;10.52;7.63;;;;;;;;;;10242843;28;20307;-75
2021/07/20 08:29:59;;;;;;;9.68;7.35;;;;;;;;;;10248509;28;20231;-74
2021/07/20 08:35:04;;;;;;;10.57;7.22;;;;;;;;;;10236591;28;20244;-75
2021/07/20 08:40:34;;;;;;;10.70;7.18;;;;;;;;;;10249474;28;20239;-73
2021/07/20 08:45:43;;;;;;;9.90;6.88;;;;;;;;;;10267861;28;20219;-72
2021/07/20 08:50:46;;;;;;;9.45;6.75;;;;;;;;;;10267161;28;20660;-74
2021/07/20 08:55:50;;;;;;;10.80;6.88;;;;;;;;;;10267615;28;20224;-75
2021/07/20 09:00:56;;;;;;;11.63;7.07;;;;;;;;;;10267255;28;20235;-74
2021/07/20 09:06:04;;;;;;;10.98;7.20;;;;;;;;;;10247913;28;20215;-74
2021/07/20 09:11:11;;;;;;;10.60;7.45;;;;;;;;;;10258803;28;20248;-74
2021/07/20 09:16:21;;;;;;;11.13;7.60;;;;;;;;;;10256206;28;20779;-73
2021/07/20 09:21:24;;;;;;;11.90;7.88;;;;;;;;;;10248191;28;20200;-74
2021/07/20 09:26:31;;;;;;;11.23;7.25;;;;;;;;;;10259805;28;20212;-74
2021/07/20 09:31:38;;;;;;;9.57;7.28;;;;;;;;;;10256921;28;20220;-74
2021/07/20 09:36:42;;;;;;;9.77;7.20;;;;;;;;;;10255720;28;20196;-75
2021/07/20 09:41:48;;;;;;;10.48;7.45;;;;;;;;;;10249629;28;20200;-75
2021/07/20 09:47:06;;;;;;;11.95;7.40;;;;;;;;;;10250601;28;20197;-74
2021/07/20 09:52:19;;;;;;;11.75;7.70;;;;;;;;;;10239561;28;20290;-74
2021/07/20 09:57:25;;;;;;;12.02;7.32;;;;;;;;;;10249583;28;20837;-74
2021/07/20 10:02:32;;;;;;;11.77;9.20;;;;;;;;;;10255058;28;20234;-74
2021/07/20 10:07:40;;;;;;;12.82;8.02;;;;;;;;;;10240806;28;20275;-74
2021/07/20 10:12:45;;;;;;;12.45;7.72;;;;;;;;;;10248432;28;20713;-76
2021/07/20 10:17:50;;;;;;;11.65;8.95;;;;;;;;;;10245026;28;20243;-73
2021/07/20 10:22:57;;;;;;;12.75;9.38;;;;;;;;;;10243792;28;20268;-74
2021/07/20 10:28:02;;;;;;;12.32;8.50;;;;;;;;;;10246170;28;20841;-73
2021/07/20 10:33:08;;;;;;;11.98;8.77;;;;;;;;;;10262630;28;20685;-74
2021/07/20 10:38:15;;;;;;;12.48;8.43;;;;;;;;;;10241448;28;20195;-74
2021/07/20 10:43:19;;;;;;;11.65;8.77;;;;;;;;;;10251879;28;20208;-74
2021/07/20 10:48:24;;;;;;;11.52;8.68;;;;;;;;;;10246783;28;20227;-74
2021/07/20 10:53:32;;;;;;;9.95;8.50;;;;;;;;;;10253087;28;20274;-76
2021/07/20 10:58:43;;;;;;;11.98;8.80;;;;;;;;;;10261571;28;20234;-78
2021/07/20 11:03:49;;;;;;;12.07;9.30;;;;;;;;;;10249195;28;20309;-76
2021/07/20 11:08:54;;;;;;;12.02;9.13;;;;;;;;;;10238869;28;20236;-76
2021/07/20 11:13:59;;;;;;;11.40;8.80;;;;;;;;;;10254732;28;20310;-76
2021/07/20 11:19:02;;;;;;;11.38;8.85;;;;;;;;;;10244244;28;20338;-77
2021/07/20 11:24:07;;;;;;;10.98;9.02;;;;;;;;;;10241841;28;20230;-76
2021/07/20 11:29:11;;;;;;;12.48;9.65;;;;;;;;;;10233762;28;20222;-76
2021/07/20 11:34:19;;;;;;;13.02;9.73;;;;;;;;;;10245170;28;20221;-76
2021/07/20 11:39:26;;;;;;;11.95;9.90;;;;;;;;;;10256252;28;20192;-76
2021/07/20 11:44:35;;;;;;;12.07;10.20;;;;;;;;;;10240415;28;20248;-77
2021/07/20 11:49:42;;;;;;;14.18;10.00;;;;;;;;;;10240033;28;20676;-77
2021/07/20 11:54:54;;;;;;;12.95;10.32;;;;;;;;;;10233739;28;20482;-77
2021/07/20 12:00:07;;;;;;;12.48;10.13;;;;;;;;;;10221941;28;20746;-76
2021/07/20 12:05:23;;;;;;;12.55;10.35;;;;;;;;;;10240212;28;20243;-76
2021/07/20 12:10:31;;;;;;;13.95;10.75;;;;;;;;;;10234692;28;20298;-76
2021/07/20 12:15:34;;;;;;;12.80;9.85;;;;;;;;;;10241263;28;20269;-76
2021/07/20 12:20:37;;;;;;;15.20;13.60;;;;;;;;;;10227565;28;20276;-76
2021/07/20 12:25:41;;;;;;;14.07;11.15;;;;;;;;;;10250211;28;20303;-75
2021/07/20 12:30:44;;;;;;;13.27;10.68;;;;;;;;;;10239701;28;20231;-76
2021/07/20 12:35:49;;;;;;;12.80;10.63;;;;;;;;;;10223419;28;20224;-76
2021/07/20 12:41:05;;;;;;;14.85;10.25;;;;;;;;;;10236192;28;20271;-75
2021/07/20 12:46:11;;;;;;;13.45;10.35;;;;;;;;;;10248163;28;20293;-74
2021/07/20 12:51:15;;;;;;;13.25;10.82;;;;;;;;;;10237656;28;20237;-77
2021/07/20 12:56:20;;;;;;;14.48;10.93;;;;;;;;;;10244201;28;20205;-76
2021/07/20 13:01:23;;;;;;;14.75;11.90;;;;;;;;;;10230745;28;20776;-76
2021/07/20 13:06:34;;;;;;;15.60;11.18;;;;;;;;;;10240507;28;20212;-76
2021/07/20 13:11:39;;;;;;;15.38;10.63;;;;;;;;;;10242583;28;20215;-77
2021/07/20 13:16:41;;;;;;;16.83;11.20;;;;;;;;;;10236334;28;20204;-76
2021/07/20 13:21:45;;;;;;;14.80;10.88;;;;;;;;;;10239596;28;20202;-76
2021/07/20 13:26:49;;;;;;;14.50;11.07;;;;;;;;;;10231434;28;20520;-76
2021/07/20 13:31:52;;;;;;;15.85;12.00;;;;;;;;;;10240522;28;20297;-77
2021/07/20 13:36:54;;;;;;;15.40;11.60;;;;;;;;;;10253433;28;20272;-75
2021/07/20 13:41:59;;;;;;;15.43;11.02;;;;;;;;;;10240127;28;20220;-76
2021/07/20 13:47:02;;;;;;;15.80;11.55;;;;;;;;;;10245800;28;20283;-77
2021/07/20 13:52:05;;;;;;;15.02;11.63;;;;;;;;;;10233469;28;20755;-75
2021/07/20 13:57:10;;;;;;;16.00;11.40;;;;;;;;;;10241502;28;20196;-77
2021/07/20 14:02:14;;;;;;;16.23;11.05;;;;;;;;;;10241313;28;20565;-75
2021/07/20 14:07:20;;;;;;;15.88;11.80;;;;;;;;;;10230059;28;21089;-76
2021/07/20 14:12:23;;;;;;;15.32;11.18;;;;;;;;;;10246637;28;20635;-76
2021/07/20 14:17:27;;;;;;;16.70;11.40;;;;;;;;;;10245681;28;20200;-77
2021/07/20 14:22:31;;;;;;;15.20;10.77;;;;;;;;;;10251296;28;20216;-77
2021/07/20 14:27:36;;;;;;;14.98;11.20;;;;;;;;;;10235223;28;20195;-76
2021/07/20 14:32:39;;;;;;;14.95;11.30;;;;;;;;;;10237957;28;20220;-75
2021/07/20 14:37:43;;;;;;;16.73;11.48;;;;;;;;;;10231986;28;20275;-76
2021/07/20 14:42:48;;;;;;;18.42;11.25;;;;;;;;;;10238938;28;20278;-76
2021/07/20 14:48:00;;;;;;;17.48;11.48;;;;;;;;;;10246228;28;20196;-76
2021/07/20 14:53:25;;;;;;;16.20;11.38;;;;;;;;;;10232778;28;20235;-76
2021/07/20 14:58:29;;;;;;;14.93;11.00;;;;;;;;;;10244172;28;20196;-76
2021/07/20 15:03:37;;;;;;;16.52;11.35;;;;;;;;;;10242481;28;20223;-77
2021/07/20 15:08:41;;;;;;;15.15;10.75;;;;;;;;;;10242017;28;20204;-76
2021/07/20 15:13:46;;;;;;;17.23;11.40;;;;;;;;;;10257805;28;20620;-77
2021/07/20 15:18:56;;;;;;;15.65;11.43;;;;;;;;;;10254101;28;20207;-77
2021/07/20 15:23:59;;;;;;;15.38;10.73;;;;;;;;;;10244650;28;20533;-76
2021/07/20 15:29:03;;;;;;;17.17;11.13;;;;;;;;;;10246370;28;20197;-78
2021/07/20 15:34:06;;;;;;;15.55;10.18;;;;;;;;;;10245839;28;20225;-77
2021/07/20 15:39:09;;;;;;;15.73;10.52;;;;;;;;;;10244516;28;20206;-77
2021/07/20 15:44:13;;;;;;;15.95;11.25;;;;;;;;;;10248291;28;20223;-77
2021/07/20 15:49:15;;;;;;;20.75;12.20;;;;;;;;;;10253948;28;20525;-78
2021/07/20 15:54:19;;;;;;;17.23;11.50;;;;;;;;;;10248895;28;20225;-78
2021/07/20 15:59:23;;;;;;;14.57;10.25;;;;;;;;;;10247380;28;20276;-76
2021/07/20 16:04:25;;;;;;;16.08;11.00;;;;;;;;;;10244090;28;20777;-77
2021/07/20 16:09:29;;;;;;;17.30;11.45;;;;;;;;;;10237174;28;20283;-77
2021/07/20 16:14:33;;;;;;;18.13;11.88;;;;;;;;;;10251724;28;20231;-78
2021/07/20 16:19:36;;;;;;;15.10;10.38;;;;;;;;;;10248437;28;20239;-77
2021/07/20 16:24:39;;;;;;;16.55;10.63;;;;;;;;;;10251384;28;20584;-77
2021/07/20 16:29:43;;;;;;;15.40;10.07;;;;;;;;;;10242650;28;20260;-76
2021/07/20 16:34:46;;;;;;;14.48;10.45;;;;;;;;;;10242502;28;20228;-77
2021/07/20 16:39:48;;;;;;;16.83;10.40;;;;;;;;;;10242792;28;20204;-77
2021/07/20 16:44:52;;;;;;;15.68;9.95;;;;;;;;;;10245242;28;20242;-77
2021/07/20 16:49:55;;;;;;;15.30;9.48;;;;;;;;;;10250348;28;20568;-77
2021/07/20 16:54:57;;;;;;;14.30;9.35;;;;;;;;;;10254982;28;20298;-77
2021/07/20 17:00:01;;;;;;;15.02;8.85;;;;;;;;;;10253273;28;20204;-76
2021/07/20 17:05:04;;;;;;;15.88;10.07;;;;;;;;;;10246526;28;20220;-77
2021/07/20 17:10:08;;;;;;;14.60;9.30;;;;;;;;;;10247505;28;20204;-76
2021/07/20 17:15:13;;;;;;;15.18;9.25;;;;;;;;;;10262557;28;20228;-77
2021/07/20 17:20:16;;;;;;;12.93;8.30;;;;;;;;;;10250583;28;20288;-77
2021/07/20 17:25:20;;;;;;;13.27;8.80;;;;;;;;;;10263448;28;20299;-77
2021/07/20 17:30:24;;;;;;;14.13;9.30;;;;;;;;;;10242983;28;20233;-77
2021/07/20 17:35:27;;;;;;;16.25;9.27;;;;;;;;;;10254442;28;20557;-76
2021/07/20 17:40:29;;;;;;;14.75;9.10;;;;;;;;;;10245205;28;20283;-76
2021/07/20 17:45:35;;;;;;;12.05;7.65;;;;;;;;;;10253589;28;20279;-77
2021/07/20 17:50:38;;;;;;;13.40;7.82;;;;;;;;;;10251925;28;20212;-77
2021/07/20 17:55:41;;;;;;;14.60;8.07;;;;;;;;;;10255889;28;20702;-77
2021/07/20 18:00:45;;;;;;;15.07;9.00;;;;;;;;;;10260802;28;20334;-77
2021/07/20 18:05:48;;;;;;;14.35;7.93;;;;;;;;;;10250595;28;20211;-76
2021/07/20 18:10:50;;;;;;;13.55;8.43;;;;;;;;;;10254163;28;20295;-76
2021/07/20 18:15:54;;;;;;;15.02;8.57;;;;;;;;;;10247536;28;20219;-77
2021/07/20 18:20:57;;;;;;;13.07;8.43;;;;;;;;;;10254087;28;20220;-78
2021/07/20 18:26:00;;;;;;;15.45;8.68;;;;;;;;;;10255006;28;20271;-77
2021/07/20 18:31:04;;;;;;;14.73;9.13;;;;;;;;;;10246426;28;20304;-76
2021/07/20 18:36:06;;;;;;;15.50;8.20;;;;;;;;;;10250853;28;20298;-78
2021/07/20 18:41:09;;;;;;;18.73;12.00;;;;;;;;;;10257329;28;20216;-77
2021/07/20 18:46:14;;;;;;;14.43;8.33;;;;;;;;;;10243737;28;20216;-77
2021/07/20 18:51:17;;;;;;;13.83;9.13;;;;;;;;;;10244341;28;20207;-76
2021/07/20 18:56:19;;;;;;;18.73;12.03;;;;;;;;;;10225680;28;20228;-77
2021/07/20 19:01:24;;;;;;;16.00;9.03;;;;;;;;;;10245202;28;20201;-76
2021/07/20 19:06:27;;;;;;;15.63;9.67;;;;;;;;;;10241642;28;20232;-77
2021/07/20 19:11:29;;;;;;;13.47;8.20;;;;;;;;;;10254647;28;20343;-77
2021/07/20 19:16:35;;;;;;;16.10;9.87;;;;;;;;;;10249035;28;20294;-76
2021/07/20 19:21:38;;;;;;;13.90;8.37;;;;;;;;;;10249185;28;20218;-76
2021/07/20 19:26:40;;;;;;;15.63;9.03;;;;;;;;;;10230255;28;20216;-76
2021/07/20 19:31:44;;;;;;;15.67;8.87;;;;;;;;;;10243986;28;20250;-77
2021/07/20 19:36:47;;;;;;;14.30;8.67;;;;;;;;;;10239448;28;20210;-77
2021/07/20 19:41:49;;;;;;;15.43;9.10;;;;;;;;;;10225536;28;20272;-76
2021/07/20 19:46:53;;;;;;;16.00;9.00;;;;;;;;;;10240361;28;20250;-77
2021/07/20 19:51:56;;;;;;;19.47;13.33;;;;;;;;;;10244967;28;20416;-77
2021/07/20 19:56:59;;;;;;;15.40;8.90;;;;;;;;;;10239039;28;20231;-77
2021/07/20 20:02:03;;;;;;;16.23;8.80;;;;;;;;;;10232305;28;20299;-77
2021/07/20 20:07:05;;;;;;;13.73;8.10;;;;;;;;;;10223941;28;20208;-77
2021/07/20 20:12:08;;;;;;;15.47;8.37;;;;;;;;;;10225302;28;20699;-76
2021/07/20 20:17:13;;;;;;;13.53;7.90;;;;;;;;;;10223912;28;20204;-76
2021/07/20 20:22:15;;;;;;;13.27;8.27;;;;;;;;;;10248616;28;20299;-77
2021/07/20 20:27:18;;;;;;;16.10;9.77;;;;;;;;;;10222151;28;20255;-77
2021/07/20 20:32:22;;;;;;;24.00;15.57;;;;;;;;;;10243455;28;20235;-78
2021/07/20 20:37:25;;;;;;;15.53;8.77;;;;;;;;;;10234030;28;20283;-77
2021/07/20 20:42:27;;;;;;;15.63;8.83;;;;;;;;;;10240722;28;20227;-77
2021/07/20 20:47:31;;;;;;;13.70;8.07;;;;;;;;;;10228322;28;20378;-75
2021/07/20 20:52:34;;;;;;;22.00;15.17;;;;;;;;;;10235453;28;20232;-77
2021/07/20 20:57:37;;;;;;;16.83;9.73;;;;;;;;;;10217768;28;20215;-76
2021/07/20 21:02:41;;;;;;;13.53;7.53;;;;;;;;;;10248022;28;20219;-75
2021/07/20 21:07:43;;;;;;;16.80;8.77;;;;;;;;;;10242355;28;20204;-76
2021/07/20 21:12:46;;;;;;;15.30;8.63;;;;;;;;;;10233122;28;20236;-77
2021/07/20 21:17:50;;;;;;;17.00;10.17;;;;;;;;;;10240097;28;20704;-77
2021/07/20 21:22:53;;;;;;;15.60;9.17;;;;;;;;;;10244512;28;20216;-78
2021/07/20 21:27:55;;;;;;;17.73;9.20;;;;;;;;;;10240175;28;20216;-77
2021/07/20 21:32:59;;;;;;;15.07;8.37;;;;;;;;;;10230317;28;20263;-76
2021/07/20 21:38:02;;;;;;;16.87;10.30;;;;;;;;;;10237015;28;20280;-77
2021/07/20 21:43:05;;;;;;;15.17;8.63;;;;;;;;;;10248548;28;20319;-76
2021/07/20 21:48:09;;;;;;;16.73;8.90;;;;;;;;;;10253727;28;20223;-77
2021/07/20 21:53:12;;;;;;;13.40;8.07;;;;;;;;;;10257862;28;20216;-77
2021/07/20 21:58:14;;;;;;;15.90;8.60;;;;;;;;;;10263663;28;20741;-79
2021/07/20 22:03:19;;;;;;;14.93;8.30;;;;;;;;;;10258605;28;20265;-78
2021/07/20 22:08:22;;;;;;;15.37;8.60;;;;;;;;;;10247294;28;20204;-77
2021/07/20 22:13:25;;;;;;;14.97;8.57;;;;;;;;;;10257582;28;20216;-77
2021/07/20 22:18:29;;;;;;;15.83;8.60;;;;;;;;;;10249141;28;20220;-76
2021/07/20 22:23:31;;;;;;;13.60;8.37;;;;;;;;;;10243795;28;20240;-78
2021/07/20 22:28:36;;;;;;;15.47;7.80;;;;;;;;;;10254558;28;20232;-76
2021/07/20 22:33:41;;;;;;;14.93;8.17;;;;;;;;;;10262131;28;20298;-78
2021/07/20 22:38:43;;;;;;;15.87;7.93;;;;;;;;;;10251740;28;20197;-76
2021/07/20 22:43:46;;;;;;;16.07;8.87;;;;;;;;;;10247085;28;20212;-77
2021/07/20 22:48:50;;;;;;;14.80;8.60;;;;;;;;;;10249608;28;20279;-77
2021/07/20 22:53:53;;;;;;;14.40;7.83;;;;;;;;;;10246617;28;20220;-77
2021/07/20 22:58:55;;;;;;;14.30;8.00;;;;;;;;;;10249778;28;20259;-77
2021/07/20 23:03:59;;;;;;;14.20;8.13;;;;;;;;;;10252436;28;20296;-78
2021/07/20 23:09:02;;;;;;;14.77;8.03;;;;;;;;;;10257756;28;20215;-77
2021/07/20 23:14:05;;;;;;;17.13;7.83;;;;;;;;;;10253742;28;20232;-78
2021/07/20 23:19:09;;;;;;;13.70;7.93;;;;;;;;;;10266200;28;20227;-77
2021/07/20 23:24:11;;;;;;;12.97;8.07;;;;;;;;;;10258625;28;20235;-76
2021/07/20 23:29:14;;;;;;;14.93;7.80;;;;;;;;;;10249416;28;20242;-76
2021/07/20 23:34:18;;;;;;;15.20;7.70;;;;;;;;;;10240066;28;20275;-77
2021/07/20 23:39:20;;;;;;;14.53;8.30;;;;;;;;;;10253757;28;20195;-77
2021/07/20 23:44:23;;;;;;;14.33;8.73;;;;;;;;;;10252802;28;20279;-76
2021/07/20 23:49:27;;;;;;;15.70;8.80;;;;;;;;;;10242754;28;20200;-77
2021/07/20 23:54:29;;;;;;;15.50;8.03;;;;;;;;;;10246714;28;20903;-76
2021/07/20 23:59:32;;;;;;;16.07;8.27;;;;;;;;;;10246006;28;20250;-77
